Time;durP1;ratioP1;P1;durP2;ratioP2;P2;SDS_P1;SDS_P2;PMS_P1;PMS_P2;Temp;Humidity;BMP_temperature;BMP_pressure;BME280_temperature;BME280_humidity;BME280_pressure;Samples;Min_cycle;Max_cycle;Signal;HPM_P1;HPM_P2
2023/05/18 00:00:14;;;;;;;4.63;1.87;;;;;;;6.21;68.33;102032.56;5046176;28;20204;-70
2023/05/18 00:02:41;;;;;;;6.03;1.73;;;;;;;6.14;67.57;102037.13;5041230;28;20233;-69
2023/05/18 00:05:09;;;;;;;2.63;1.57;;;;;;;6.06;67.88;102028.50;5052209;28;20205;-69
2023/05/18 00:07:36;;;;;;;5.50;1.87;;;;;;;6.02;68.72;102033.91;5043479;28;20209;-69
2023/05/18 00:10:02;;;;;;;4.67;2.00;;;;;;;5.96;69.16;102031.38;5039112;28;20205;-69
2023/05/18 00:12:30;;;;;;;3.93;2.00;;;;;;;5.90;69.37;102030.63;5041836;28;20221;-69
2023/05/18 00:14:57;;;;;;;4.10;1.70;;;;;;;5.85;69.77;102037.75;5047284;28;20589;-69
2023/05/18 00:17:23;;;;;;;3.23;1.80;;;;;;;5.81;69.76;102033.44;5046427;28;20696;-69
2023/05/18 00:19:50;;;;;;;6.57;2.10;;;;;;;5.74;70.04;102026.53;5047017;28;20231;-68
2023/05/18 00:22:17;;;;;;;5.20;1.60;;;;;;;5.70;70.62;102032.81;5044756;28;20237;-69
2023/05/18 00:24:44;;;;;;;5.47;1.60;;;;;;;5.63;70.19;102031.19;5043900;28;20233;-69
2023/05/18 00:27:11;;;;;;;4.90;1.87;;;;;;;5.57;70.76;102040.09;5042718;28;20233;-69
2023/05/18 00:29:39;;;;;;;7.80;1.93;;;;;;;5.52;71.62;102036.69;5039510;28;20248;-68
2023/05/18 00:32:05;;;;;;;3.80;1.80;;;;;;;5.50;71.55;102035.84;5044416;28;20233;-69
2023/05/18 00:34:32;;;;;;;4.50;1.70;;;;;;;5.46;71.73;102039.44;5047128;28;20201;-68
2023/05/18 00:36:58;;;;;;;3.23;1.50;;;;;;;5.45;71.96;102032.44;5045197;28;20239;-69
2023/05/18 00:39:25;;;;;;;3.70;1.90;;;;;;;5.41;71.82;102040.44;5043718;28;20208;-68
2023/05/18 00:41:51;;;;;;;3.87;2.00;;;;;;;5.34;72.02;102036.19;5050937;28;20248;-68
2023/05/18 00:44:18;;;;;;;8.53;2.10;;;;;;;5.28;72.65;102031.91;5051721;28;20292;-69
2023/05/18 00:46:46;;;;;;;3.23;1.97;;;;;;;5.28;72.89;102044.22;5046921;28;20214;-69
2023/05/18 00:49:12;;;;;;;6.30;2.07;;;;;;;5.26;73.34;102038.97;5048050;28;20209;-68
2023/05/18 00:51:40;;;;;;;5.03;2.10;;;;;;;5.24;73.22;102039.00;5050875;28;20225;-69
2023/05/18 00:54:07;;;;;;;3.67;1.53;;;;;;;5.20;72.90;102036.44;5046000;28;20197;-69
2023/05/18 00:56:33;;;;;;;7.40;2.20;;;;;;;5.14;73.27;102044.50;5049580;28;20205;-69
2023/05/18 00:59:02;;;;;;;3.07;1.70;;;;;;;5.08;73.61;102047.25;5053579;28;20211;-68
2023/05/18 01:01:29;;;;;;;4.50;1.70;;;;;;;5.03;73.39;102057.00;5048764;28;20248;-69
2023/05/18 01:04:01;;;;;;;4.03;1.80;;;;;;;4.99;74.10;102055.34;5048426;28;20825;-67
2023/05/18 01:06:31;;;;;;;3.67;2.03;;;;;;;4.95;74.45;102045.72;5042594;28;20601;-69
2023/05/18 01:08:58;;;;;;;4.10;1.93;;;;;;;4.94;74.60;102055.41;5039966;28;20353;-69
2023/05/18 01:11:31;;;;;;;3.40;1.60;;;;;;;4.88;74.60;102043.19;5041500;28;20230;-69
2023/05/18 01:14:04;;;;;;;5.10;2.10;;;;;;;4.81;74.21;102044.22;5048391;28;20197;-69
2023/05/18 01:16:40;;;;;;;3.73;1.90;;;;;;;4.76;74.30;102043.41;5045382;28;20245;-69
2023/05/18 01:19:27;;;;;;;3.13;2.30;;;;;;;4.70;75.41;102046.16;5046611;28;20204;-69
2023/05/18 01:21:58;;;;;;;5.23;1.90;;;;;;;4.64;75.30;102056.81;5052141;28;20239;-69
2023/05/18 01:24:35;;;;;;;2.80;1.87;;;;;;;4.59;76.04;102040.19;5043194;28;20217;-69
2023/05/18 01:27:07;;;;;;;3.77;2.00;;;;;;;4.59;76.11;102052.50;5048395;28;20236;-69
2023/05/18 01:29:35;;;;;;;6.57;2.00;;;;;;;4.57;76.63;102049.88;5053848;28;20206;-68
2023/05/18 01:32:01;;;;;;;2.90;1.77;;;;;;;4.53;76.70;102049.06;5041773;28;20232;-69
2023/05/18 01:34:28;;;;;;;3.93;1.73;;;;;;;4.52;76.81;102054.38;5052456;28;20205;-69
2023/05/18 01:36:54;;;;;;;2.80;1.87;;;;;;;4.51;76.94;102055.25;5045820;28;20220;-68
2023/05/18 01:39:21;;;;;;;4.03;2.10;;;;;;;4.50;77.77;102056.16;5046674;28;20275;-69
2023/05/18 01:41:52;;;;;;;5.77;1.97;;;;;;;4.46;76.98;102060.63;5041467;28;20235;-69
2023/05/18 01:44:24;;;;;;;4.30;1.90;;;;;;;4.43;77.52;102067.72;5050954;28;20234;-70
2023/05/18 01:46:57;;;;;;;2.37;1.77;;;;;;;4.41;77.60;102061.59;5042696;28;20230;-69
2023/05/18 01:49:29;;;;;;;4.67;2.30;;;;;;;4.41;78.18;102058.94;5047037;28;20229;-69
2023/05/18 01:51:58;;;;;;;5.53;2.70;;;;;;;4.39;78.09;102066.88;5044464;28;20829;-70
2023/05/18 01:54:26;;;;;;;6.17;2.50;;;;;;;4.36;77.98;102061.66;5051001;28;20205;-70
2023/05/18 01:56:54;;;;;;;4.67;2.20;;;;;;;4.34;78.70;102066.06;5038089;28;20266;-69
2023/05/18 01:59:23;;;;;;;7.93;2.50;;;;;;;4.33;78.91;102066.09;5046785;28;20201;-71
2023/05/18 02:01:50;;;;;;;6.60;2.20;;;;;;;4.31;78.63;102067.88;5048436;28;20229;-70
2023/05/18 02:04:17;;;;;;;6.17;2.47;;;;;;;4.29;78.75;102065.28;5045996;28;20229;-70
2023/05/18 02:06:43;;;;;;;4.50;1.80;;;;;;;4.28;79.17;102067.94;5040098;28;20210;-70
2023/05/18 02:09:11;;;;;;;5.60;2.23;;;;;;;4.26;79.09;102062.69;5050224;28;20217;-70
2023/05/18 02:11:37;;;;;;;5.43;2.50;;;;;;;4.24;79.14;102061.84;5048300;28;20236;-70
2023/05/18 02:14:04;;;;;;;5.07;2.40;;;;;;;4.22;78.83;102060.13;5049414;28;20213;-70
2023/05/18 02:16:32;;;;;;;3.67;2.10;;;;;;;4.19;79.55;102059.25;5044290;28;20203;-70
2023/05/18 02:18:59;;;;;;;3.87;2.03;;;;;;;4.20;79.01;102062.78;5045189;28;20201;-70
2023/05/18 02:21:25;;;;;;;5.00;2.10;;;;;;;4.16;79.03;102056.66;5049137;28;20222;-70
2023/05/18 02:23:52;;;;;;;3.93;2.10;;;;;;;4.15;79.56;102056.69;5050939;28;20233;-70
2023/05/18 02:26:18;;;;;;;3.37;2.00;;;;;;;4.12;78.75;102047.03;5044015;28;20216;-70
2023/05/18 02:28:45;;;;;;;3.57;2.50;;;;;;;4.09;78.98;102062.94;5054969;28;20213;-70
2023/05/18 02:31:12;;;;;;;4.73;2.47;;;;;;;4.07;78.97;102059.44;5044763;28;20222;-69
2023/05/18 02:33:40;;;;;;;6.33;2.57;;;;;;;4.05;79.17;102069.13;5051542;28;20201;-70
2023/05/18 02:36:08;;;;;;;6.80;2.13;;;;;;;4.03;78.94;102063.00;5043185;28;20201;-69
2023/05/18 02:38:37;;;;;;;2.93;1.93;;;;;;;4.00;79.38;102063.06;5050745;28;20319;-70
2023/05/18 02:41:03;;;;;;;3.17;2.00;;;;;;;3.96;79.24;102060.47;5048355;28;20222;-70
2023/05/18 02:43:30;;;;;;;6.07;2.00;;;;;;;3.93;79.02;102066.69;5049137;28;20221;-70
2023/05/18 02:45:56;;;;;;;4.20;2.10;;;;;;;3.90;78.70;102063.22;5048434;28;20212;-69
2023/05/18 02:48:23;;;;;;;5.23;1.87;;;;;;;3.83;78.22;102065.03;5045706;28;20782;-69
2023/05/18 02:50:51;;;;;;;5.53;2.30;;;;;;;3.75;78.73;102065.16;5052424;28;20446;-70
2023/05/18 02:53:17;;;;;;;5.53;1.83;;;;;;;3.66;79.00;102067.88;5046071;28;20194;-70
2023/05/18 02:55:45;;;;;;;3.77;1.97;;;;;;;3.59;79.26;102065.34;5048816;28;20220;-69
2023/05/18 02:58:12;;;;;;;4.43;2.10;;;;;;;3.54;79.67;102072.44;5048491;28;20204;-69
2023/05/18 03:00:38;;;;;;;3.37;2.37;;;;;;;3.52;80.72;102068.94;5047930;28;20405;-70
2023/05/18 03:03:05;;;;;;;8.37;2.33;;;;;;;3.53;81.05;102071.56;5051065;28;20208;-70
2023/05/18 03:05:31;;;;;;;3.93;2.50;;;;;;;3.53;81.21;102066.31;5046609;28;20666;-70
2023/05/18 03:08:01;;;;;;;6.90;2.53;;;;;;;3.53;80.47;102074.22;5043302;28;20212;-70
2023/05/18 03:10:27;;;;;;;4.93;1.93;;;;;;;3.55;81.34;102071.56;5044818;28;20197;-68
2023/05/18 03:12:54;;;;;;;4.37;2.20;;;;;;;3.49;80.97;102070.72;5041948;28;20224;-69
2023/05/18 03:15:20;;;;;;;7.63;2.57;;;;;;;3.48;81.00;102071.63;5045185;28;20213;-69
2023/05/18 03:17:48;;;;;;;7.13;2.60;;;;;;;3.46;80.68;102076.03;5041813;28;20214;-69
2023/05/18 03:20:14;;;;;;;5.37;2.50;;;;;;;3.45;81.27;102070.78;5053014;28;20273;-68
2023/05/18 03:22:41;;;;;;;5.70;2.50;;;;;;;3.46;81.95;102076.03;5044344;28;20206;-69
2023/05/18 03:25:09;;;;;;;4.67;2.27;;;;;;;3.47;81.66;102083.03;5051529;28;20224;-69
2023/05/18 03:27:36;;;;;;;7.00;2.43;;;;;;;3.48;82.08;102078.66;5045318;28;20837;-70
2023/05/18 03:30:03;;;;;;;4.73;2.20;;;;;;;3.49;81.53;102076.00;5051483;28;20651;-70
2023/05/18 03:32:30;;;;;;;4.97;2.30;;;;;;;3.49;82.05;102077.75;5039470;28;21007;-70
2023/05/18 03:34:59;;;;;;;5.13;2.30;;;;;;;3.48;81.34;102084.78;5046301;28;20196;-69
2023/05/18 03:37:26;;;;;;;4.60;1.93;;;;;;;3.47;81.67;102085.69;5045182;28;20213;-69
2023/05/18 03:39:52;;;;;;;2.10;1.90;;;;;;;3.43;80.84;102083.09;5047292;28;20200;-69
2023/05/18 03:42:20;;;;;;;4.13;1.93;;;;;;;3.38;80.68;102088.44;5042374;28;20312;-70
2023/05/18 03:44:47;;;;;;;4.20;2.30;;;;;;;3.34;81.08;102081.44;5048615;28;20696;-70
2023/05/18 03:47:13;;;;;;;3.53;1.70;;;;;;;3.32;81.54;102088.47;5041081;28;20197;-69
2023/05/18 03:49:40;;;;;;;5.00;2.10;;;;;;;3.28;81.61;102084.13;5048632;28;20214;-69
2023/05/18 03:52:07;;;;;;;3.83;2.00;;;;;;;3.25;81.53;102086.78;5043159;28;20230;-70
2023/05/18 03:54:33;;;;;;;6.83;2.50;;;;;;;3.24;81.88;102084.16;5048609;28;20209;-69
2023/05/18 03:57:00;;;;;;;6.90;2.27;;;;;;;3.23;81.19;102087.69;5047486;28;20668;-69
2023/05/18 03:59:28;;;;;;;3.63;2.37;;;;;;;3.21;81.99;102084.22;5046144;28;20197;-69
2023/05/18 04:01:55;;;;;;;4.00;2.87;;;;;;;3.22;82.09;102081.56;5043207;28;20232;-68
2023/05/18 04:04:22;;;;;;;6.37;2.00;;;;;;;3.24;82.86;102084.16;5044781;28;20228;-70
2023/05/18 04:06:50;;;;;;;4.43;2.83;;;;;;;3.24;82.85;102082.41;5042247;28;20213;-70
2023/05/18 04:09:17;;;;;;;6.07;2.40;;;;;;;3.23;81.90;102085.06;5044526;28;20300;-70
2023/05/18 04:11:43;;;;;;;3.20;2.13;;;;;;;3.21;82.25;102085.09;5043577;28;20232;-69
2023/05/18 04:14:11;;;;;;;3.73;2.13;;;;;;;3.18;82.79;102095.66;5050107;28;20213;-70
2023/05/18 04:16:39;;;;;;;4.50;2.30;;;;;;;3.19;82.47;102101.78;5048401;28;20631;-70
2023/05/18 04:19:06;;;;;;;5.50;2.17;;;;;;;3.16;83.20;102100.06;5047654;28;20247;-69
2023/05/18 04:21:34;;;;;;;4.13;2.60;;;;;;;3.17;83.25;102095.66;5051231;28;20574;-69
2023/05/18 04:24:02;;;;;;;4.77;2.97;;;;;;;3.14;83.08;102100.06;5051219;28;20226;-70
2023/05/18 04:26:28;;;;;;;4.47;2.67;;;;;;;3.13;83.14;102103.59;5053344;28;20202;-70
2023/05/18 04:28:58;;;;;;;5.70;2.87;;;;;;;3.12;83.27;102101.84;5052392;28;20244;-70
2023/05/18 04:31:26;;;;;;;6.57;2.90;;;;;;;3.13;83.65;102102.72;5048409;28;20228;-70
2023/05/18 04:33:54;;;;;;;6.27;2.80;;;;;;;3.14;83.97;102109.72;5052119;28;20235;-70
2023/05/18 04:36:24;;;;;;;8.03;3.23;;;;;;;3.16;84.04;102109.72;5047758;28;20210;-70
2023/05/18 04:38:51;;;;;;;7.97;3.00;;;;;;;3.17;85.01;102109.69;5052911;28;20201;-69
2023/05/18 04:41:19;;;;;;;6.37;3.47;;;;;;;3.20;84.65;102114.94;5046098;28;20232;-70
2023/05/18 04:43:46;;;;;;;6.43;2.93;;;;;;;3.22;84.97;102115.81;5047006;28;20319;-69
2023/05/18 04:46:12;;;;;;;5.03;3.37;;;;;;;3.25;85.77;102114.88;5047604;28;20301;-70
2023/05/18 04:48:39;;;;;;;5.37;2.90;;;;;;;3.26;85.50;102109.59;5044210;28;20221;-69
2023/05/18 04:51:07;;;;;;;6.90;3.10;;;;;;;3.29;85.57;102117.47;5049179;28;20590;-69
2023/05/18 04:53:34;;;;;;;6.60;3.40;;;;;;;3.32;86.34;102120.06;5051076;28;20210;-69
2023/05/18 04:56:01;;;;;;;6.73;3.40;;;;;;;3.35;86.43;102113.91;5048770;28;20592;-69
2023/05/18 04:58:29;;;;;;;7.33;3.37;;;;;;;3.39;87.22;102121.78;5051585;28;20680;-69
2023/05/18 05:00:56;;;;;;;6.53;3.43;;;;;;;3.43;87.20;102119.94;5051418;28;20222;-70
2023/05/18 05:03:22;;;;;;;5.50;3.57;;;;;;;3.47;88.03;102113.78;5047542;28;20208;-69
2023/05/18 05:05:49;;;;;;;7.07;4.00;;;;;;;3.53;88.28;102118.97;5048450;28;20739;-69
2023/05/18 05:08:16;;;;;;;6.37;3.70;;;;;;;3.58;89.10;102121.56;5045540;28;20213;-70
2023/05/18 05:10:43;;;;;;;9.30;4.47;;;;;;;3.63;88.77;102117.09;5051573;28;20615;-70
2023/05/18 05:13:09;;;;;;;4.83;3.43;;;;;;;3.69;89.47;102123.19;5045704;28;20224;-70
2023/05/18 05:15:36;;;;;;;7.20;4.20;;;;;;;3.76;89.33;102116.09;5046113;28;20209;-71
2023/05/18 05:18:03;;;;;;;6.60;3.60;;;;;;;3.83;89.94;102113.34;5044338;28;20212;-71
2023/05/18 05:20:29;;;;;;;7.13;4.20;;;;;;;3.90;90.31;102122.06;5050958;28;20462;-69
2023/05/18 05:22:55;;;;;;;9.13;4.03;;;;;;;3.99;90.77;102126.34;5050756;28;20592;-70
2023/05/18 05:25:23;;;;;;;7.63;4.20;;;;;;;4.08;91.75;102126.22;5046993;28;20236;-70
2023/05/18 05:27:50;;;;;;;11.73;4.67;;;;;;;4.16;91.49;102122.59;5049664;28;20217;-69
2023/05/18 05:30:16;;;;;;;8.77;4.57;;;;;;;4.26;92.00;102126.00;5050283;28;20214;-70
2023/05/18 05:32:43;;;;;;;7.03;4.10;;;;;;;4.37;92.48;102126.69;5048005;28;20220;-70
2023/05/18 05:35:09;;;;;;;8.70;4.60;;;;;;;4.47;92.74;102132.72;5051711;28;20227;-69
2023/05/18 05:37:36;;;;;;;10.17;4.00;;;;;;;4.60;93.12;102134.28;5047650;28;20213;-70
2023/05/18 05:40:05;;;;;;;9.50;4.13;;;;;;;4.72;93.48;102134.09;5051236;28;20255;-71
2023/05/18 05:42:32;;;;;;;7.10;4.10;;;;;;;4.83;92.33;102132.16;5044969;28;20311;-70
2023/05/18 05:44:59;;;;;;;10.43;4.20;;;;;;;4.95;91.98;102130.22;5051937;28;20232;-70
2023/05/18 05:47:26;;;;;;;7.50;4.00;;;;;;;5.09;91.89;102134.34;5050024;28;20209;-69
2023/05/18 05:49:52;;;;;;;8.60;4.77;;;;;;;5.27;91.50;102132.28;5050565;28;20213;-69
2023/05/18 05:52:19;;;;;;;5.57;3.90;;;;;;;5.43;90.78;102139.91;5041866;28;20228;-70
2023/05/18 05:54:45;;;;;;;7.23;4.63;;;;;;;5.61;90.38;102132.53;5043940;28;20197;-70
2023/05/18 05:57:12;;;;;;;7.30;4.10;;;;;;;5.76;89.00;102134.88;5047198;28;20224;-69
2023/05/18 05:59:39;;;;;;;10.50;4.50;;;;;;;5.94;88.44;102129.25;5044318;28;20214;-70
2023/05/18 06:02:09;;;;;;;9.40;3.97;;;;;;;6.15;87.81;102131.44;5045006;28;20221;-70
2023/05/18 06:04:36;;;;;;;8.53;4.50;;;;;;;6.37;87.16;102138.94;5048602;28;20229;-71
2023/05/18 06:07:02;;;;;;;7.93;3.90;;;;;;;6.55;85.99;102138.50;5043129;28;20208;-70
2023/05/18 06:09:29;;;;;;;10.47;3.87;;;;;;;6.72;85.36;102138.13;5051269;28;20215;-71
2023/05/18 06:11:55;;;;;;;8.33;3.70;;;;;;;6.89;84.38;102143.88;5044179;28;20236;-69
2023/05/18 06:14:21;;;;;;;6.97;3.60;;;;;;;7.04;82.72;102146.16;5042150;28;20245;-70
2023/05/18 06:16:49;;;;;;;7.20;3.57;;;;;;;7.18;81.31;102135.19;5041305;28;20205;-71
2023/05/18 06:19:16;;;;;;;6.93;3.40;;;;;;;7.32;80.41;102149.84;5037874;28;20210;-70
2023/05/18 06:21:42;;;;;;;7.50;3.03;;;;;;;7.51;80.19;102142.28;5048099;28;20237;-70
2023/05/18 06:24:10;;;;;;;7.80;2.70;;;;;;;7.68;78.84;102144.47;5042614;28;20206;-69
2023/05/18 06:26:36;;;;;;;7.87;3.03;;;;;;;7.82;76.37;102146.72;5049273;28;20524;-71
2023/05/18 06:29:04;;;;;;;6.73;3.40;;;;;;;7.93;75.25;102147.28;5049903;28;20240;-70
2023/05/18 06:31:31;;;;;;;6.30;2.87;;;;;;;8.06;74.48;102146.00;5039745;28;20225;-71
2023/05/18 06:33:58;;;;;;;8.27;3.20;;;;;;;8.19;73.48;102150.06;5046231;28;20206;-71
2023/05/18 06:36:25;;;;;;;11.67;3.87;;;;;;;8.35;74.14;102145.19;5048304;28;20205;-71
2023/05/18 06:38:51;;;;;;;5.43;3.40;;;;;;;8.54;72.23;102149.03;5051655;28;20216;-70
2023/05/18 06:41:18;;;;;;;8.33;3.20;;;;;;;8.65;70.92;102149.56;5040025;28;20226;-69
2023/05/18 06:43:44;;;;;;;8.23;3.30;;;;;;;8.75;70.03;102151.94;5040639;28;20496;-69
2023/05/18 06:46:19;;;;;;;5.83;3.20;;;;;;;8.88;70.15;102158.59;5040327;28;20625;-71
2023/05/18 06:48:45;;;;;;;8.77;4.10;;;;;;;9.04;70.44;102155.38;5041861;28;20205;-70
2023/05/18 06:51:15;;;;;;;5.07;2.37;;;;;;;9.18;67.79;102159.34;5042247;28;20221;-70
2023/05/18 06:53:41;;;;;;;5.33;2.90;;;;;;;9.28;66.86;102158.16;5044129;28;20213;-70
2023/05/18 06:56:07;;;;;;;4.97;2.43;;;;;;;9.38;66.16;102156.91;5048277;28;20236;-70
2023/05/18 06:58:34;;;;;;;8.67;3.00;;;;;;;9.49;66.31;102157.41;5040936;28;20211;-70
2023/05/18 07:01:01;;;;;;;6.87;3.20;;;;;;;9.60;65.02;102157.91;5040152;28;20766;-70
2023/05/18 07:03:28;;;;;;;6.53;2.93;;;;;;;9.73;65.08;102145.00;5042955;28;20592;-70
2023/05/18 07:05:55;;;;;;;5.10;3.13;;;;;;;9.84;64.08;102152.63;5044779;28;20252;-70
2023/05/18 07:08:23;;;;;;;6.80;3.60;;;;;;;9.99;64.41;102157.38;5048368;28;20216;-70
2023/05/18 07:10:50;;;;;;;7.03;3.07;;;;;;;10.14;63.89;102151.47;5044448;28;20223;-71
2023/05/18 07:13:16;;;;;;;7.50;2.93;;;;;;;10.29;63.20;102156.25;5040956;28;20245;-71
2023/05/18 07:15:43;;;;;;;5.13;2.80;;;;;;;10.38;61.60;102160.38;5040339;28;20209;-70
2023/05/18 07:18:09;;;;;;;8.97;3.20;;;;;;;10.40;61.09;102158.50;5045288;28;20213;-71
2023/05/18 07:20:36;;;;;;;8.90;3.20;;;;;;;10.48;60.79;102160.88;5040409;28;21971;-71
2023/05/18 07:23:02;;;;;;;8.57;3.47;;;;;;;10.56;60.90;102159.66;5038113;28;20259;-71
2023/05/18 07:25:30;;;;;;;6.77;3.40;;;;;;;10.66;60.60;102157.50;5040838;28;20237;-71
2023/05/18 07:27:57;;;;;;;8.03;3.50;;;;;;;10.73;59.71;102162.53;5036033;28;20210;-70
2023/05/18 07:30:25;;;;;;;8.10;3.53;;;;;;;10.78;59.17;102151.66;5042434;28;20209;-71
2023/05/18 07:32:51;;;;;;;6.40;3.60;;;;;;;10.88;60.08;102166.38;5039784;28;20265;-71
2023/05/18 07:35:19;;;;;;;6.40;3.50;;;;;;;10.99;59.54;102160.59;5039093;28;20353;-70
2023/05/18 07:37:45;;;;;;;5.90;3.33;;;;;;;11.11;59.44;102154.72;5043529;28;20202;-71
2023/05/18 07:40:12;;;;;;;7.20;3.13;;;;;;;11.25;59.04;102160.38;5035625;28;20605;-71
2023/05/18 07:42:40;;;;;;;6.83;3.43;;;;;;;11.35;57.42;102159.03;5039767;28;20229;-69
2023/05/18 07:45:08;;;;;;;8.70;3.93;;;;;;;11.36;56.62;102154.59;5036002;22;20234;-83
2023/05/18 07:47:35;;;;;;;6.07;3.80;;;;;;;11.38;56.59;102152.72;5015688;28;20210;-84
2023/05/18 07:50:01;;;;;;;8.07;2.97;;;;;;;11.47;56.40;102160.31;5017015;28;20638;-83
2023/05/18 07:52:28;;;;;;;7.00;3.00;;;;;;;11.54;56.22;102153.78;5014917;28;20208;-86
2023/05/18 07:54:55;;;;;;;7.33;3.10;;;;;;;11.62;55.91;102156.13;5007856;28;20625;-83
2023/05/18 07:57:22;;;;;;;6.00;3.03;;;;;;;11.76;55.96;102143.94;5008610;28;20206;-83
2023/05/18 07:59:50;;;;;;;7.10;3.30;;;;;;;11.92;56.02;102145.91;5016426;28;20214;-86
2023/05/18 08:02:18;;;;;;;4.60;2.73;;;;;;;12.05;54.89;102153.28;5020619;28;20704;-84
2023/05/18 08:04:45;;;;;;;9.57;3.53;;;;;;;12.13;53.77;102144.94;5019621;28;20239;-84
2023/05/18 08:07:11;;;;;;;6.20;3.30;;;;;;;12.16;53.57;102145.69;5018441;28;20661;-84
2023/05/18 08:09:38;;;;;;;7.53;3.33;;;;;;;12.27;54.15;102152.31;5014978;28;20285;-82
2023/05/18 08:12:05;;;;;;;9.93;2.80;;;;;;;12.41;53.75;102156.06;5020397;28;20207;-84
2023/05/18 08:14:31;;;;;;;6.23;2.80;;;;;;;12.50;52.73;102144.09;5001468;28;20294;-84
2023/05/18 08:16:59;;;;;;;5.10;2.60;;;;;;;12.56;53.01;102148.25;4997570;28;20208;-83
2023/05/18 08:19:25;;;;;;;7.23;3.53;;;;;;;12.67;52.64;102156.66;5006241;28;20203;-87
2023/05/18 08:21:52;;;;;;;7.23;3.50;;;;;;;12.80;52.63;102152.44;5003032;28;20215;-86
2023/05/18 08:24:18;;;;;;;7.87;3.37;;;;;;;12.88;52.10;102150.25;5005778;28;20211;-87
2023/05/18 08:26:45;;;;;;;5.77;2.73;;;;;;;12.99;51.75;102150.59;5009789;28;20241;-87
2023/05/18 08:29:11;;;;;;;7.60;2.87;;;;;;;13.02;51.49;102142.41;5011125;28;20223;-87
2023/05/18 08:31:39;;;;;;;8.50;3.50;;;;;;;12.98;50.49;102142.63;5006577;28;20214;-87
2023/05/18 08:34:08;;;;;;;7.57;2.93;;;;;;;12.98;50.80;102132.81;5015336;28;20206;-87
2023/05/18 08:36:35;;;;;;;8.07;3.03;;;;;;;13.03;50.38;102132.59;5006777;28;20314;-86
2023/05/18 08:39:03;;;;;;;6.23;2.90;;;;;;;13.09;50.67;102130.44;5004264;28;20256;-82
2023/05/18 08:41:33;;;;;;;7.40;2.77;;;;;;;13.17;50.77;102130.97;5002620;28;20207;-82
2023/05/18 08:44:03;;;;;;;6.43;3.20;;;;;;;13.28;50.63;102132.22;5004803;28;20214;-83
2023/05/18 08:46:34;;;;;;;11.63;3.47;;;;;;;13.39;50.72;102120.03;5004060;28;20612;-83
2023/05/18 08:49:02;;;;;;;6.53;3.03;;;;;;;13.49;50.32;102120.41;5006399;28;20238;-84
2023/05/18 08:51:34;;;;;;;11.13;3.53;;;;;;;13.63;50.53;102117.88;5004096;28;20231;-83
2023/05/18 08:54:02;;;;;;;6.83;2.93;;;;;;;13.77;49.02;102123.38;5003745;28;20203;-85
2023/05/18 08:56:31;;;;;;;6.07;2.70;;;;;;;13.79;47.90;102123.31;5003884;28;20219;-82
2023/05/18 08:58:58;;;;;;;6.27;2.67;;;;;;;13.78;48.29;102111.75;5008131;28;20210;-83
2023/05/18 09:01:27;;;;;;;6.43;2.77;;;;;;;13.83;48.11;102111.47;5008762;28;20199;-83
2023/05/18 09:03:55;;;;;;;5.87;3.13;;;;;;;13.80;48.20;102125.00;5006712;28;20684;-83
2023/05/18 09:06:23;;;;;;;7.80;3.67;;;;;;;13.73;47.78;102116.47;5004236;28;20234;-82
2023/05/18 09:08:51;;;;;;;8.23;2.90;;;;;;;13.66;48.50;102108.81;5002859;28;20234;-83
2023/05/18 09:11:18;;;;;;;7.90;3.03;;;;;;;13.67;49.65;102107.88;5008108;28;20199;-83
2023/05/18 09:13:45;;;;;;;8.13;2.60;;;;;;;13.74;49.81;102115.53;5003143;28;20215;-83
2023/05/18 09:16:11;;;;;;;6.67;3.27;;;;;;;13.81;49.36;102118.72;5006893;28;20222;-83
2023/05/18 09:18:38;;;;;;;7.20;2.77;;;;;;;13.91;49.04;102117.28;5012882;28;20221;-83
2023/05/18 09:21:05;;;;;;;7.47;2.90;;;;;;;14.04;48.87;102117.47;5010956;28;20218;-83
2023/05/18 09:23:32;;;;;;;6.37;3.00;;;;;;;14.15;48.62;102115.94;5002848;28;20207;-83
2023/05/18 09:26:00;;;;;;;6.77;2.53;;;;;;;14.23;47.76;102113.72;5011204;28;20609;-84
2023/05/18 09:28:31;;;;;;;9.70;2.90;;;;;;;14.25;48.13;102106.44;5002595;28;20215;-84
2023/05/18 09:30:57;;;;;;;5.80;2.90;;;;;;;14.33;48.24;102107.84;5008774;28;20203;-84
2023/05/18 09:33:24;;;;;;;4.83;2.37;;;;;;;14.42;47.82;102102.00;5008851;28;20215;-84
2023/05/18 09:35:51;;;;;;;6.77;2.90;;;;;;;14.50;48.04;102100.63;5015121;28;20226;-83
2023/05/18 09:38:20;;;;;;;4.77;2.53;;;;;;;14.61;48.14;102101.81;5010720;28;20199;-83
2023/05/18 09:40:47;;;;;;;5.80;2.43;;;;;;;14.63;47.41;102098.09;5013514;28;20822;-83
2023/05/18 09:43:17;;;;;;;5.50;2.43;;;;;;;14.69;47.09;102100.41;5007707;28;20206;-83
2023/05/18 09:45:45;;;;;;;6.33;2.73;;;;;;;14.71;46.78;102103.88;5009528;28;20239;-82
2023/05/18 09:48:11;;;;;;;6.23;2.57;;;;;;;14.78;46.62;102101.72;5005469;28;20215;-82
2023/05/18 09:50:38;;;;;;;4.43;2.33;;;;;;;14.80;46.41;102105.16;5011111;28;20235;-83
2023/05/18 09:53:08;;;;;;;6.17;2.53;;;;;;;14.71;45.74;102109.22;5000186;28;20202;-82
2023/05/18 09:55:37;;;;;;;5.53;2.30;;;;;;;14.62;46.07;102103.53;5002797;28;20243;-82
2023/05/18 09:58:06;;;;;;;5.37;2.70;;;;;;;14.66;46.92;102099.75;5007798;28;20217;-82
2023/05/18 10:00:37;;;;;;;4.73;2.13;;;;;;;14.71;46.78;102108.38;5003311;28;20211;-82
2023/05/18 10:03:04;;;;;;;5.43;2.17;;;;;;;14.71;46.54;102108.38;5013712;28;20704;-82
2023/05/18 10:05:33;;;;;;;6.17;2.70;;;;;;;14.69;46.71;102099.56;5006582;28;20230;-82
2023/05/18 10:08:00;;;;;;;9.23;2.73;;;;;;;14.70;46.67;102102.13;5006446;28;20293;-83
2023/05/18 10:10:28;;;;;;;5.00;2.87;;;;;;;14.70;46.09;102102.13;5005848;28;20198;-83
2023/05/18 10:12:57;;;;;;;6.90;3.23;;;;;;;14.74;46.75;102100.16;5005797;28;20203;-82
2023/05/18 10:15:24;;;;;;;5.80;2.67;;;;;;;14.82;46.66;102090.72;5003180;28;20219;-81
2023/05/18 10:17:56;;;;;;;6.23;2.43;;;;;;;14.87;46.29;102099.34;5005356;28;20656;-81
2023/05/18 10:20:25;;;;;;;8.43;3.00;;;;;;;15.00;47.44;102083.41;5008026;28;20214;-81
2023/05/18 10:22:54;;;;;;;5.70;2.70;;;;;;;15.17;47.39;102094.00;5010421;28;20848;-82
2023/05/18 10:25:21;;;;;;;5.60;2.57;;;;;;;15.19;45.54;102089.41;5003571;28;20226;-82
2023/05/18 10:27:49;;;;;;;5.53;2.50;;;;;;;15.16;45.70;102089.59;5003112;28;20220;-82
2023/05/18 10:30:17;;;;;;;7.70;2.83;;;;;;;15.19;46.15;102080.50;5010709;28;20216;-83
2023/05/18 10:32:44;;;;;;;6.50;2.83;;;;;;;15.23;46.41;102090.06;5011035;28;20216;-82
2023/05/18 10:35:13;;;;;;;6.10;2.70;;;;;;;15.24;45.65;102086.44;5009828;28;20233;-82
2023/05/18 10:37:43;;;;;;;7.77;2.80;;;;;;;15.25;45.75;102085.47;5010636;28;20215;-82
2023/05/18 10:40:10;;;;;;;5.60;2.30;;;;;;;15.27;46.02;102081.75;5006833;28;20223;-82
2023/05/18 10:42:37;;;;;;;3.87;2.20;;;;;;;15.34;45.50;102076.03;5010104;28;20214;-81
2023/05/18 10:45:07;;;;;;;6.47;2.63;;;;;;;15.36;45.34;102079.47;5007108;28;20249;-81
2023/05/18 10:47:38;;;;;;;8.93;2.50;;;;;;;15.44;45.51;102079.84;5004346;28;20233;-81
2023/05/18 10:50:05;;;;;;;6.30;2.67;;;;;;;15.56;45.88;102073.78;5006564;28;20218;-83
2023/05/18 10:52:33;;;;;;;4.77;2.40;;;;;;;15.66;45.58;102066.88;5011456;28;20687;-81
2023/05/18 10:55:00;;;;;;;6.13;2.80;;;;;;;15.71;45.05;102074.66;5004520;28;20225;-81
2023/05/18 10:57:33;;;;;;;6.77;2.60;;;;;;;15.73;44.62;102067.38;5010709;28;20205;-81
2023/05/18 11:00:00;;;;;;;7.83;2.70;;;;;;;15.73;44.69;102062.00;5006024;28;20325;-81
2023/05/18 11:02:27;;;;;;;4.23;2.40;;;;;;;15.72;44.75;102055.75;5005340;28;20768;-83
2023/05/18 11:04:55;;;;;;;6.30;2.40;;;;;;;15.76;44.25;102049.25;5019015;28;20318;-82
2023/05/18 11:07:23;;;;;;;6.87;2.60;;;;;;;15.77;44.55;102053.63;5016822;28;20318;-85
2023/05/18 11:09:51;;;;;;;4.30;2.50;;;;;;;15.87;45.11;102044.06;5013360;28;20266;-82
2023/05/18 11:12:17;;;;;;;6.13;2.37;;;;;;;15.95;45.11;102047.09;5008987;28;20213;-83
2023/05/18 11:14:49;;;;;;;5.93;2.60;;;;;;;16.05;44.28;102049.22;5011592;28;20234;-83
2023/05/18 11:17:18;;;;;;;4.33;2.37;;;;;;;16.12;44.16;102046.00;5007507;28;20220;-82
2023/05/18 11:20:12;;;;;;;6.07;2.73;;;;;;;16.26;43.92;102043.31;5000782;28;20738;-82
2023/05/18 11:22:45;;;;;;;7.27;3.07;;;;;;;16.36;43.41;102053.44;4993597;28;20272;-83
2023/05/18 11:25:42;;;;;;;3.43;2.07;;;;;;;16.42;43.32;102051.25;5005761;28;20876;-82
2023/05/18 11:28:10;;;;;;;6.03;2.20;;;;;;;16.40;42.71;102039.72;5008866;28;20217;-82
2023/05/18 11:30:47;;;;;;;7.37;3.13;;;;;;;16.40;43.16;102042.41;5005262;28;20306;-82